sensor_id;sensor_type;location;lat;lon;timestamp;P1;P4;P2;P0;N10;N4;N25;N1;N05;TS
75657;SPS30;64255;49.892;17.884;2023-04-30T00:00:19;22.88;22.86;22.80;21.50;171.69;171.66;171.61;171.31;151.76;0.52
75657;SPS30;64255;49.892;17.884;2023-04-30T00:03:25;22.68;22.66;22.63;21.37;170.63;170.60;170.56;170.29;150.91;0.52
75657;SPS30;64255;49.892;17.884;2023-04-30T00:06:12;22.70;22.68;22.66;21.39;170.80;170.77;170.73;170.46;151.06;0.52
75657;SPS30;64255;49.892;17.884;2023-04-30T00:08:58;22.88;22.87;22.85;21.59;172.38;172.36;172.32;172.06;152.50;0.52
75657;SPS30;64255;49.892;17.884;2023-04-30T00:11:45;22.46;22.45;22.45;21.23;169.51;169.48;169.44;169.21;150.00;0.52
75657;SPS30;64255;49.892;17.884;2023-04-30T00:14:31;22.78;22.77;22.73;21.45;171.26;171.23;171.19;170.91;151.43;0.52
75657;SPS30;64255;49.892;17.884;2023-04-30T00:17:17;22.36;22.36;22.36;21.15;168.84;168.81;168.78;168.55;149.42;0.51
75657;SPS30;64255;49.892;17.884;2023-04-30T00:20:04;22.63;22.61;22.56;21.29;169.96;169.93;169.88;169.60;150.26;0.52
75657;SPS30;64255;49.892;17.884;2023-04-30T00:22:51;23.25;23.24;23.23;21.95;175.28;175.26;175.22;174.96;155.08;0.51
75657;SPS30;64255;49.892;17.884;2023-04-30T00:25:38;22.33;22.33;22.33;21.11;168.56;168.54;168.50;168.27;149.17;0.51
75657;SPS30;64255;49.892;17.884;2023-04-30T00:28:24;22.38;22.38;22.37;21.15;168.88;168.86;168.82;168.59;149.45;0.52
75657;SPS30;64255;49.892;17.884;2023-04-30T00:31:11;22.02;22.02;22.02;20.83;166.28;166.25;166.22;165.99;147.15;0.51
75657;SPS30;64255;49.892;17.884;2023-04-30T00:33:57;21.80;21.80;21.80;20.61;164.54;164.52;164.48;164.25;145.61;0.50
75657;SPS30;64255;49.892;17.884;2023-04-30T00:36:43;21.71;21.71;21.71;20.53;163.93;163.91;163.87;163.65;145.08;0.50
75657;SPS30;64255;49.892;17.884;2023-04-30T00:39:30;20.99;20.99;20.99;19.85;158.44;158.42;158.39;158.17;140.22;0.51
75657;SPS30;64255;49.892;17.884;2023-04-30T00:42:16;20.31;20.30;20.28;19.15;152.89;152.87;152.83;152.60;135.23;0.52
75657;SPS30;64255;49.892;17.884;2023-04-30T00:45:03;19.76;19.76;19.75;18.66;148.98;148.96;148.93;148.71;131.81;0.50
75657;SPS30;64255;49.892;17.884;2023-04-30T00:47:50;19.60;19.60;19.60;18.53;147.96;147.94;147.90;147.70;130.94;0.51
75657;SPS30;64255;49.892;17.884;2023-04-30T00:50:37;19.80;19.80;19.80;18.72;149.47;149.45;149.41;149.21;132.28;0.50
75657;SPS30;64255;49.892;17.884;2023-04-30T00:53:24;18.83;18.83;18.83;17.80;142.13;142.11;142.08;141.89;125.79;0.49
75657;SPS30;64255;49.892;17.884;2023-04-30T00:56:12;17.20;17.20;17.20;16.26;129.83;129.81;129.79;129.61;114.90;0.49
75657;SPS30;64255;49.892;17.884;2023-04-30T00:58:59;16.34;16.34;16.34;15.45;123.35;123.33;123.31;123.14;109.16;0.50
75657;SPS30;64255;49.892;17.884;2023-04-30T01:01:46;14.93;14.93;14.93;14.12;112.74;112.73;112.70;112.55;99.78;0.49
75657;SPS30;64255;49.892;17.884;2023-04-30T01:04:32;15.30;15.30;15.30;14.47;115.54;115.53;115.50;115.35;102.25;0.48
75657;SPS30;64255;49.892;17.884;2023-04-30T01:07:20;14.01;14.01;14.01;13.25;105.75;105.74;105.71;105.57;93.59;0.50
75657;SPS30;64255;49.892;17.884;2023-04-30T01:10:07;12.71;12.71;12.71;12.02;95.93;95.92;95.90;95.77;84.90;0.48
75657;SPS30;64255;49.892;17.884;2023-04-30T01:16:12;11.87;11.87;11.87;11.23;89.65;89.64;89.62;89.50;79.34;0.48
75657;SPS30;64255;49.892;17.884;2023-04-30T01:19:08;12.77;12.77;12.77;12.07;96.38;96.37;96.35;96.21;85.30;0.49
75657;SPS30;64255;49.892;17.884;2023-04-30T01:25:13;11.24;11.24;11.24;10.63;84.90;84.89;84.87;84.75;75.13;0.48
75657;SPS30;64255;49.892;17.884;2023-04-30T01:28:24;9.87;9.87;9.87;9.34;74.55;74.54;74.53;74.42;65.98;0.49
75657;SPS30;64255;49.892;17.884;2023-04-30T01:31:14;10.09;10.09;10.09;9.54;76.17;76.16;76.14;76.04;67.41;0.49
75657;SPS30;64255;49.892;17.884;2023-04-30T01:34:03;10.51;10.51;10.51;9.94;79.35;79.34;79.32;79.22;70.23;0.48
75657;SPS30;64255;49.892;17.884;2023-04-30T01:37:10;11.43;11.43;11.43;10.81;86.33;86.32;86.30;86.18;76.40;0.48
75657;SPS30;64255;49.892;17.884;2023-04-30T01:44:01;13.10;13.10;13.10;12.39;98.92;98.90;98.88;98.74;87.54;0.48
75657;SPS30;64255;49.892;17.884;2023-04-30T01:50:02;15.96;15.96;15.96;15.09;120.51;120.49;120.46;120.30;106.65;0.48
75657;SPS30;64255;49.892;17.884;2023-04-30T01:53:10;15.89;15.89;15.89;15.02;119.95;119.93;119.90;119.74;106.15;0.47
75657;SPS30;64255;49.892;17.884;2023-04-30T01:56:10;16.56;16.56;16.56;15.66;125.04;125.02;125.00;124.83;110.66;0.50
75657;SPS30;64255;49.892;17.884;2023-04-30T01:59:16;16.43;16.43;16.43;15.53;124.01;124.00;123.97;123.80;109.75;0.51
75657;SPS30;64255;49.892;17.884;2023-04-30T02:02:04;16.43;16.43;16.43;15.54;124.04;124.03;124.00;123.83;109.78;0.51
75657;SPS30;64255;49.892;17.884;2023-04-30T02:04:51;16.38;16.37;16.37;15.48;123.55;123.54;123.51;123.33;109.33;0.50
75657;SPS30;64255;49.892;17.884;2023-04-30T02:07:41;16.67;16.67;16.67;15.76;125.81;125.79;125.77;125.59;111.33;0.52
75657;SPS30;64255;49.892;17.884;2023-04-30T02:10:31;16.29;16.29;16.29;15.41;123.02;123.00;122.98;122.81;108.87;0.50
75657;SPS30;64255;49.892;17.884;2023-04-30T02:13:17;16.30;16.30;16.30;15.42;123.07;123.05;123.03;122.86;108.92;0.51
75657;SPS30;64255;49.892;17.884;2023-04-30T02:16:04;16.23;16.23;16.23;15.35;122.56;122.54;122.52;122.35;108.46;0.50
75657;SPS30;64255;49.892;17.884;2023-04-30T02:18:51;16.12;16.12;16.12;15.24;121.70;121.68;121.65;121.49;107.70;0.49
75657;SPS30;64255;49.892;17.884;2023-04-30T02:21:37;15.65;15.65;15.65;14.80;118.18;118.16;118.14;117.98;104.59;0.49
75657;SPS30;64255;49.892;17.884;2023-04-30T02:24:24;15.89;15.89;15.89;15.03;119.99;119.97;119.95;119.78;106.19;0.49
75657;SPS30;64255;49.892;17.884;2023-04-30T02:27:10;15.33;15.33;15.33;14.50;115.76;115.75;115.72;115.56;102.45;0.51
75657;SPS30;64255;49.892;17.884;2023-04-30T02:29:57;15.06;15.06;15.06;14.24;113.68;113.67;113.64;113.49;100.61;0.51
75657;SPS30;64255;49.892;17.884;2023-04-30T02:32:44;15.25;15.25;15.25;14.42;115.16;115.15;115.12;114.96;101.92;0.51
75657;SPS30;64255;49.892;17.884;2023-04-30T02:35:31;14.58;14.58;14.58;13.79;110.08;110.06;110.04;109.89;97.41;0.50
75657;SPS30;64255;49.892;17.884;2023-04-30T02:38:17;14.97;14.96;14.93;14.08;112.42;112.41;112.38;112.19;99.39;0.52
75657;SPS30;64255;49.892;17.884;2023-04-30T02:41:04;14.42;14.42;14.40;13.60;108.58;108.56;108.54;108.37;96.04;0.53
75657;SPS30;64255;49.892;17.884;2023-04-30T02:43:50;14.99;14.99;14.98;14.16;113.04;113.02;112.99;112.83;100.01;0.51
75657;SPS30;64255;49.892;17.884;2023-04-30T02:46:37;14.51;14.49;14.46;13.65;108.95;108.94;108.91;108.72;96.33;0.52
75657;SPS30;64255;49.892;17.884;2023-04-30T02:49:23;14.94;14.94;14.94;14.12;112.76;112.75;112.72;112.57;99.79;0.51
75657;SPS30;64255;49.892;17.884;2023-04-30T02:52:10;14.32;14.32;14.31;13.53;108.04;108.02;108.00;107.85;95.60;0.50
75657;SPS30;64255;49.892;17.884;2023-04-30T02:54:56;14.02;14.02;14.02;13.26;105.84;105.82;105.80;105.66;93.66;0.51
75657;SPS30;64255;49.892;17.884;2023-04-30T02:57:43;14.16;14.15;14.15;13.37;106.75;106.73;106.71;106.56;94.45;0.52
75657;SPS30;64255;49.892;17.884;2023-04-30T03:00:29;13.98;13.98;13.98;13.22;105.53;105.51;105.49;105.35;93.39;0.51
75657;SPS30;64255;49.892;17.884;2023-04-30T03:03:15;14.21;14.21;14.21;13.43;107.26;107.24;107.22;107.07;94.92;0.50
75657;SPS30;64255;49.892;17.884;2023-04-30T03:06:02;13.73;13.72;13.71;12.96;103.47;103.45;103.43;103.27;91.54;0.52
75657;SPS30;64255;49.892;17.884;2023-04-30T03:08:49;13.87;13.87;13.87;13.11;104.69;104.68;104.66;104.51;92.65;0.50
75657;SPS30;64255;49.892;17.884;2023-04-30T03:11:35;13.86;13.86;13.86;13.10;104.63;104.61;104.59;104.44;92.59;0.51
75657;SPS30;64255;49.892;17.884;2023-04-30T03:14:22;13.93;13.93;13.93;13.17;105.18;105.16;105.14;105.00;93.08;0.50
75657;SPS30;64255;49.892;17.884;2023-04-30T03:17:08;13.26;13.26;13.26;12.54;100.10;100.09;100.06;99.93;88.59;0.49
75657;SPS30;64255;49.892;17.884;2023-04-30T03:19:54;13.41;13.41;13.41;12.68;101.22;101.20;101.18;101.04;89.57;0.51
75657;SPS30;64255;49.892;17.884;2023-04-30T03:22:41;12.96;12.96;12.96;12.26;97.88;97.87;97.85;97.71;86.62;0.50
75657;SPS30;64255;49.892;17.884;2023-04-30T03:25:27;13.27;13.27;13.27;12.55;100.18;100.16;100.14;100.00;88.65;0.51
75657;SPS30;64255;49.892;17.884;2023-04-30T03:28:14;12.95;12.95;12.95;12.25;97.77;97.76;97.74;97.60;86.53;0.50
75657;SPS30;64255;49.892;17.884;2023-04-30T03:31:00;13.17;13.17;13.17;12.45;99.41;99.40;99.38;99.24;87.98;0.48
75657;SPS30;64255;49.892;17.884;2023-04-30T03:33:47;12.82;12.82;12.82;12.12;96.77;96.76;96.74;96.60;85.64;0.50
75657;SPS30;64255;49.892;17.884;2023-04-30T03:36:34;13.16;13.16;13.16;12.44;99.32;99.31;99.29;99.15;87.90;0.50
75657;SPS30;64255;49.892;17.884;2023-04-30T03:39:20;12.86;12.86;12.86;12.16;97.08;97.06;97.04;96.91;85.91;0.51
75657;SPS30;64255;49.892;17.884;2023-04-30T03:42:07;12.93;12.93;12.93;12.22;97.59;97.58;97.56;97.43;86.37;0.51
75657;SPS30;64255;49.892;17.884;2023-04-30T03:44:53;13.02;13.02;13.02;12.31;98.28;98.27;98.24;98.11;86.98;0.50
75657;SPS30;64255;49.892;17.884;2023-04-30T03:47:40;13.22;13.22;13.22;12.50;99.80;99.78;99.76;99.62;88.32;0.50
75657;SPS30;64255;49.892;17.884;2023-04-30T03:50:27;12.92;12.92;12.91;12.19;97.36;97.34;97.32;97.18;86.13;0.52
75657;SPS30;64255;49.892;17.884;2023-04-30T03:53:14;12.45;12.44;12.43;11.74;93.74;93.72;93.70;93.56;82.91;0.51
75657;SPS30;64255;49.892;17.884;2023-04-30T03:56:00;12.94;12.94;12.94;12.24;97.73;97.72;97.70;97.56;86.49;0.49
75657;SPS30;64255;49.892;17.884;2023-04-30T03:58:48;13.24;13.24;13.24;12.52;99.99;99.98;99.95;99.82;88.49;0.49
75657;SPS30;64255;49.892;17.884;2023-04-30T04:01:35;13.24;13.24;13.24;12.52;99.98;99.97;99.94;99.81;88.48;0.49
75657;SPS30;64255;49.892;17.884;2023-04-30T04:04:21;13.22;13.22;13.22;12.50;99.83;99.82;99.79;99.66;88.35;0.50
75657;SPS30;64255;49.892;17.884;2023-04-30T04:07:08;13.17;13.17;13.17;12.46;99.47;99.45;99.43;99.30;88.03;0.50
75657;SPS30;64255;49.892;17.884;2023-04-30T04:09:54;13.17;13.17;13.17;12.45;99.43;99.42;99.40;99.26;88.00;0.51
75657;SPS30;64255;49.892;17.884;2023-04-30T04:12:41;13.72;13.66;13.53;12.65;101.01;100.99;100.94;100.64;88.95;0.54
75657;SPS30;64255;49.892;17.884;2023-04-30T04:15:28;13.27;13.25;13.22;12.46;99.50;99.48;99.45;99.28;87.94;0.53
75657;SPS30;64255;49.892;17.884;2023-04-30T04:18:14;13.62;13.62;13.62;12.88;102.80;102.78;102.76;102.62;90.98;0.50
75657;SPS30;64255;49.892;17.884;2023-04-30T04:21:01;12.91;12.91;12.91;12.20;97.44;97.42;97.40;97.27;86.23;0.50
75657;SPS30;64255;49.892;17.884;2023-04-30T04:23:47;13.13;13.13;13.13;12.42;99.12;99.11;99.09;98.95;87.72;0.51
75657;SPS30;64255;49.892;17.884;2023-04-30T04:26:34;13.67;13.66;13.64;12.87;102.74;102.72;102.69;102.52;90.84;0.52
75657;SPS30;64255;49.892;17.884;2023-04-30T04:29:21;13.54;13.53;13.53;12.79;102.15;102.13;102.11;101.97;90.39;0.52
75657;SPS30;64255;49.892;17.884;2023-04-30T04:32:08;13.85;13.85;13.85;13.09;104.51;104.49;104.47;104.32;92.47;0.50
75657;SPS30;64255;49.892;17.884;2023-04-30T04:34:54;13.66;13.66;13.66;12.92;103.16;103.15;103.12;102.98;91.30;0.49
75657;SPS30;64255;49.892;17.884;2023-04-30T04:37:41;13.64;13.62;13.58;12.79;102.13;102.12;102.09;101.90;90.25;0.52
75657;SPS30;64255;49.892;17.884;2023-04-30T04:40:27;13.52;13.52;13.52;12.78;102.04;102.03;102.01;101.87;90.31;0.52
75657;SPS30;64255;49.892;17.884;2023-04-30T04:43:14;13.28;13.26;13.23;12.47;99.57;99.56;99.53;99.35;88.01;0.53
75657;SPS30;64255;49.892;17.884;2023-04-30T04:46:00;13.48;13.48;13.48;12.75;101.77;101.76;101.74;101.60;90.07;0.50
75657;SPS30;64255;49.892;17.884;2023-04-30T04:48:47;13.65;13.65;13.65;12.91;103.09;103.07;103.05;102.91;91.23;0.50
75657;SPS30;64255;49.892;17.884;2023-04-30T04:51:33;13.64;13.64;13.64;12.90;103.01;102.99;102.97;102.83;91.16;0.51
75657;SPS30;64255;49.892;17.884;2023-04-30T04:54:20;13.28;13.28;13.28;12.55;100.19;100.18;100.16;100.01;88.66;0.51
75657;SPS30;64255;49.892;17.884;2023-04-30T04:57:06;14.05;14.05;14.05;13.28;106.05;106.03;106.01;105.86;93.85;0.51
75657;SPS30;64255;49.892;17.884;2023-04-30T04:59:53;13.82;13.82;13.82;13.07;104.35;104.34;104.31;104.17;92.35;0.48
75657;SPS30;64255;49.892;17.884;2023-04-30T05:02:39;13.25;13.25;13.25;12.53;100.05;100.03;100.01;99.87;88.54;0.51
75657;SPS30;64255;49.892;17.884;2023-04-30T05:05:26;14.11;14.10;14.10;13.33;106.40;106.39;106.36;106.21;94.15;0.51
75657;SPS30;64255;49.892;17.884;2023-04-30T05:08:12;14.13;14.12;14.12;13.35;106.60;106.58;106.56;106.41;94.33;0.51
75657;SPS30;64255;49.892;17.884;2023-04-30T05:10:59;13.83;13.83;13.83;13.08;104.41;104.39;104.37;104.23;92.40;0.51
75657;SPS30;64255;49.892;17.884;2023-04-30T05:13:46;13.97;13.97;13.97;13.21;105.50;105.48;105.46;105.32;93.37;0.50
75657;SPS30;64255;49.892;17.884;2023-04-30T05:16:32;14.42;14.42;14.42;13.64;108.88;108.86;108.84;108.69;96.35;0.50
75657;SPS30;64255;49.892;17.884;2023-04-30T05:19:19;13.78;13.78;13.78;13.03;104.01;104.00;103.97;103.83;92.05;0.49
75657;SPS30;64255;49.892;17.884;2023-04-30T05:22:05;14.04;14.04;14.04;13.28;106.02;106.00;105.98;105.84;93.83;0.50
75657;SPS30;64255;49.892;17.884;2023-04-30T05:24:52;13.86;13.86;13.86;13.11;104.66;104.65;104.63;104.48;92.63;0.50
75657;SPS30;64255;49.892;17.884;2023-04-30T05:27:38;13.98;13.98;13.98;13.22;105.52;105.50;105.48;105.34;93.38;0.50
75657;SPS30;64255;49.892;17.884;2023-04-30T05:30:25;13.79;13.79;13.79;13.04;104.08;104.07;104.04;103.90;92.11;0.50
75657;SPS30;64255;49.892;17.884;2023-04-30T05:33:11;13.14;13.14;13.14;12.42;99.14;99.13;99.11;98.97;87.73;0.50
75657;SPS30;64255;49.892;17.884;2023-04-30T05:35:58;13.21;13.21;13.21;12.49;99.75;99.73;99.71;99.57;88.27;0.50
75657;SPS30;64255;49.892;17.884;2023-04-30T05:38:44;13.62;13.62;13.62;12.88;102.82;102.81;102.79;102.65;91.00;0.49
75657;SPS30;64255;49.892;17.884;2023-04-30T05:41:31;12.93;12.93;12.93;12.23;97.60;97.59;97.57;97.44;86.38;0.51
75657;SPS30;64255;49.892;17.884;2023-04-30T05:44:17;12.66;12.66;12.66;11.97;95.55;95.54;95.52;95.39;84.56;0.51
75657;SPS30;64255;49.892;17.884;2023-04-30T05:47:04;12.92;12.92;12.92;12.22;97.55;97.54;97.52;97.38;86.33;0.49
75657;SPS30;64255;49.892;17.884;2023-04-30T05:49:50;13.17;13.17;13.17;12.45;99.40;99.39;99.37;99.23;87.97;0.50
75657;SPS30;64255;49.892;17.884;2023-04-30T05:52:37;13.24;13.24;13.24;12.52;99.97;99.95;99.93;99.79;88.47;0.49
75657;SPS30;64255;49.892;17.884;2023-04-30T05:55:23;13.12;13.12;13.12;12.40;99.03;99.02;99.00;98.86;87.64;0.50
75657;SPS30;64255;49.892;17.884;2023-04-30T05:58:10;13.01;13.01;13.00;12.29;98.12;98.11;98.09;97.95;86.82;0.51
75657;SPS30;64255;49.892;17.884;2023-04-30T06:00:57;12.56;12.56;12.56;11.87;94.80;94.78;94.76;94.63;83.90;0.50
75657;SPS30;64255;49.892;17.884;2023-04-30T06:03:43;12.75;12.75;12.75;12.06;96.28;96.27;96.25;96.12;85.21;0.49
75657;SPS30;64255;49.892;17.884;2023-04-30T06:06:30;12.30;12.30;12.30;11.63;92.88;92.87;92.85;92.72;82.20;0.48
75657;SPS30;64255;49.892;17.884;2023-04-30T06:09:17;12.77;12.77;12.77;12.08;96.42;96.41;96.39;96.26;85.33;0.51
75657;SPS30;64255;49.892;17.884;2023-04-30T06:12:03;12.99;12.98;12.98;12.26;97.90;97.89;97.87;97.72;86.62;0.52
75657;SPS30;64255;49.892;17.884;2023-04-30T06:14:51;29.91;28.74;26.45;22.41;179.12;179.00;178.44;175.37;150.66;0.62
75657;SPS30;64255;49.892;17.884;2023-04-30T06:17:40;nan;nan;nan;nan;nan;nan;nan;nan;nan;nan
75657;SPS30;64255;49.892;17.884;2023-04-30T06:20:26;nan;nan;nan;nan;nan;nan;nan;nan;nan;nan
75657;SPS30;64255;49.892;17.884;2023-04-30T06:23:13;nan;nan;nan;nan;nan;nan;nan;nan;nan;nan
75657;SPS30;64255;49.892;17.884;2023-04-30T06:25:59;nan;nan;nan;nan;nan;nan;nan;nan;nan;nan
75657;SPS30;64255;49.892;17.884;2023-04-30T06:28:45;nan;nan;nan;nan;nan;nan;nan;nan;nan;nan
75657;SPS30;64255;49.892;17.884;2023-04-30T06:31:32;nan;nan;nan;nan;nan;nan;nan;nan;nan;nan
75657;SPS30;64255;49.892;17.884;2023-04-30T06:34:19;31.09;29.54;26.51;21.61;172.85;172.70;171.97;168.00;142.57;0.70
75657;SPS30;64255;49.892;17.884;2023-04-30T06:37:05;31.14;29.61;26.60;21.74;173.83;173.68;172.96;169.02;143.53;0.69
75657;SPS30;64255;49.892;17.884;2023-04-30T06:39:52;30.87;29.42;26.58;21.90;175.12;174.97;174.29;170.55;145.23;0.69
75657;SPS30;64255;49.892;17.884;2023-04-30T06:42:38;32.58;30.89;27.61;22.36;178.84;178.68;177.89;173.59;146.99;0.71
75657;SPS30;64255;49.892;17.884;2023-04-30T06:45:24;34.26;32.34;28.59;22.75;182.03;181.84;180.95;176.07;148.20;0.72
75657;SPS30;64255;49.892;17.884;2023-04-30T06:48:11;35.65;33.65;29.73;23.66;189.27;189.08;188.15;183.06;154.07;0.72
75657;SPS30;64255;49.892;17.884;2023-04-30T06:50:57;34.20;32.13;28.07;21.93;175.48;175.29;174.33;169.09;141.39;0.72
75657;SPS30;64255;49.892;17.884;2023-04-30T06:53:44;33.95;31.92;27.94;21.90;175.23;175.04;174.10;168.96;141.45;0.73
75657;SPS30;64255;49.892;17.884;2023-04-30T06:56:30;33.96;31.85;27.73;21.53;172.30;172.10;171.13;165.81;138.34;0.74
75657;SPS30;64255;49.892;17.884;2023-04-30T06:59:18;33.65;31.70;27.90;22.05;176.42;176.23;175.33;170.40;143.08;0.72
75657;SPS30;64255;49.892;17.884;2023-04-30T07:02:41;nan;nan;nan;nan;nan;nan;nan;nan;nan;nan
75657;SPS30;64255;49.892;17.884;2023-04-30T07:06:21;nan;nan;nan;nan;nan;nan;nan;nan;nan;nan
75657;SPS30;64255;49.892;17.884;2023-04-30T07:10:01;nan;nan;nan;nan;nan;nan;nan;nan;nan;nan
75657;SPS30;64255;49.892;17.884;2023-04-30T07:13:41;nan;nan;nan;nan;nan;nan;nan;nan;nan;nan
75657;SPS30;64255;49.892;17.884;2023-04-30T07:17:21;nan;nan;nan;nan;nan;nan;nan;nan;nan;nan
75657;SPS30;64255;49.892;17.884;2023-04-30T07:21:01;nan;nan;nan;nan;nan;nan;nan;nan;nan;nan
75657;SPS30;64255;49.892;17.884;2023-04-30T07:24:41;nan;nan;nan;nan;nan;nan;nan;nan;nan;nan
75657;SPS30;64255;49.892;17.884;2023-04-30T07:28:20;nan;nan;nan;nan;nan;nan;nan;nan;nan;nan
75657;SPS30;64255;49.892;17.884;2023-04-30T07:31:07;nan;nan;nan;nan;nan;nan;nan;nan;nan;nan
75657;SPS30;64255;49.892;17.884;2023-04-30T07:33:54;nan;nan;nan;nan;nan;nan;nan;nan;nan;nan
75657;SPS30;64255;49.892;17.884;2023-04-30T07:36:40;nan;nan;nan;nan;nan;nan;nan;nan;nan;nan
75657;SPS30;64255;49.892;17.884;2023-04-30T07:39:27;nan;nan;nan;nan;nan;nan;nan;nan;nan;nan
75657;SPS30;64255;49.892;17.884;2023-04-30T07:42:13;nan;nan;nan;nan;nan;nan;nan;nan;nan;nan
75657;SPS30;64255;49.892;17.884;2023-04-30T07:45:00;nan;nan;nan;nan;nan;nan;nan;nan;nan;nan
75657;SPS30;64255;49.892;17.884;2023-04-30T07:47:47;nan;nan;nan;nan;nan;nan;nan;nan;nan;nan
75657;SPS30;64255;49.892;17.884;2023-04-30T07:50:33;nan;nan;nan;nan;nan;nan;nan;nan;nan;nan
75657;SPS30;64255;49.892;17.884;2023-04-30T07:53:20;nan;nan;nan;nan;nan;nan;nan;nan;nan;nan
75657;SPS30;64255;49.892;17.884;2023-04-30T07:56:06;nan;nan;nan;nan;nan;nan;nan;nan;nan;nan
75657;SPS30;64255;49.892;17.884;2023-04-30T07:58:53;nan;nan;nan;nan;nan;nan;nan;nan;nan;nan
75657;SPS30;64255;49.892;17.884;2023-04-30T08:01:39;nan;nan;nan;nan;nan;nan;nan;nan;nan;nan
75657;SPS30;64255;49.892;17.884;2023-04-30T08:04:27;nan;nan;nan;nan;nan;nan;nan;nan;nan;nan
75657;SPS30;64255;49.892;17.884;2023-04-30T08:08:06;nan;nan;nan;nan;nan;nan;nan;nan;nan;nan
75657;SPS30;64255;49.892;17.884;2023-04-30T08:10:53;nan;nan;nan;nan;nan;nan;nan;nan;nan;nan
75657;SPS30;64255;49.892;17.884;2023-04-30T08:14:32;9.69;9.69;9.69;9.17;73.19;73.18;73.16;73.06;64.77;0.49
75657;SPS30;64255;49.892;17.884;2023-04-30T08:17:20;9.84;9.84;9.84;9.30;74.28;74.26;74.25;74.15;65.73;0.48
75657;SPS30;64255;49.892;17.884;2023-04-30T08:21:00;nan;nan;nan;nan;nan;nan;nan;nan;nan;nan
75657;SPS30;64255;49.892;17.884;2023-04-30T08:24:40;nan;nan;nan;nan;nan;nan;nan;nan;nan;nan
75657;SPS30;64255;49.892;17.884;2023-04-30T08:28:20;nan;nan;nan;nan;nan;nan;nan;nan;nan;nan
75657;SPS30;64255;49.892;17.884;2023-04-30T08:32:01;nan;nan;nan;nan;nan;nan;nan;nan;nan;nan
75657;SPS30;64255;49.892;17.884;2023-04-30T08:35:42;nan;nan;nan;nan;nan;nan;nan;nan;nan;nan
75657;SPS30;64255;49.892;17.884;2023-04-30T08:39:21;nan;nan;nan;nan;nan;nan;nan;nan;nan;nan
75657;SPS30;64255;49.892;17.884;2023-04-30T08:43:06;nan;nan;nan;nan;nan;nan;nan;nan;nan;nan
75657;SPS30;64255;49.892;17.884;2023-04-30T08:46:49;nan;nan;nan;nan;nan;nan;nan;nan;nan;nan
75657;SPS30;64255;49.892;17.884;2023-04-30T08:50:33;nan;nan;nan;nan;nan;nan;nan;nan;nan;nan
75657;SPS30;64255;49.892;17.884;2023-04-30T08:54:13;nan;nan;nan;nan;nan;nan;nan;nan;nan;nan
75657;SPS30;64255;49.892;17.884;2023-04-30T08:57:53;nan;nan;nan;nan;nan;nan;nan;nan;nan;nan
75657;SPS30;64255;49.892;17.884;2023-04-30T09:01:33;nan;nan;nan;nan;nan;nan;nan;nan;nan;nan
75657;SPS30;64255;49.892;17.884;2023-04-30T09:05:14;nan;nan;nan;nan;nan;nan;nan;nan;nan;nan
75657;SPS30;64255;49.892;17.884;2023-04-30T09:08:54;nan;nan;nan;nan;nan;nan;nan;nan;nan;nan
75657;SPS30;64255;49.892;17.884;2023-04-30T09:12:38;nan;nan;nan;nan;nan;nan;nan;nan;nan;nan
75657;SPS30;64255;49.892;17.884;2023-04-30T09:16:27;nan;nan;nan;nan;nan;nan;nan;nan;nan;nan
75657;SPS30;64255;49.892;17.884;2023-04-30T09:20:12;nan;nan;nan;nan;nan;nan;nan;nan;nan;nan
75657;SPS30;64255;49.892;17.884;2023-04-30T09:23:53;nan;nan;nan;nan;nan;nan;nan;nan;nan;nan
75657;SPS30;64255;49.892;17.884;2023-04-30T09:27:37;nan;nan;nan;nan;nan;nan;nan;nan;nan;nan
75657;SPS30;64255;49.892;17.884;2023-04-30T09:31:20;nan;nan;nan;nan;nan;nan;nan;nan;nan;nan
75657;SPS30;64255;49.892;17.884;2023-04-30T09:35:00;nan;nan;nan;nan;nan;nan;nan;nan;nan;nan
75657;SPS30;64255;49.892;17.884;2023-04-30T09:38:40;nan;nan;nan;nan;nan;nan;nan;nan;nan;nan
75657;SPS30;64255;49.892;17.884;2023-04-30T09:42:31;nan;nan;nan;nan;nan;nan;nan;nan;nan;nan
75657;SPS30;64255;49.892;17.884;2023-04-30T09:46:12;nan;nan;nan;nan;nan;nan;nan;nan;nan;nan
75657;SPS30;64255;49.892;17.884;2023-04-30T09:49:57;nan;nan;nan;nan;nan;nan;nan;nan;nan;nan
75657;SPS30;64255;49.892;17.884;2023-04-30T09:53:39;6.08;6.08;6.08;5.75;45.92;45.91;45.90;45.84;40.64;0.50
75657;SPS30;64255;49.892;17.884;2023-04-30T09:56:29;nan;nan;nan;nan;nan;nan;nan;nan;nan;nan
75657;SPS30;64255;49.892;17.884;2023-04-30T10:00:16;nan;nan;nan;nan;nan;nan;nan;nan;nan;nan
75657;SPS30;64255;49.892;17.884;2023-04-30T10:03:57;nan;nan;nan;nan;nan;nan;nan;nan;nan;nan
75657;SPS30;64255;49.892;17.884;2023-04-30T10:07:41;nan;nan;nan;nan;nan;nan;nan;nan;nan;nan
75657;SPS30;64255;49.892;17.884;2023-04-30T10:11:28;nan;nan;nan;nan;nan;nan;nan;nan;nan;nan
75657;SPS30;64255;49.892;17.884;2023-04-30T10:19:02;nan;nan;nan;nan;nan;nan;nan;nan;nan;nan
75657;SPS30;64255;49.892;17.884;2023-04-30T10:22:49;nan;nan;nan;nan;nan;nan;nan;nan;nan;nan
75657;SPS30;64255;49.892;17.884;2023-04-30T10:26:30;nan;nan;nan;nan;nan;nan;nan;nan;nan;nan
75657;SPS30;64255;49.892;17.884;2023-04-30T10:30:11;nan;nan;nan;nan;nan;nan;nan;nan;nan;nan
75657;SPS30;64255;49.892;17.884;2023-04-30T10:41:38;nan;nan;nan;nan;nan;nan;nan;nan;nan;nan
75657;SPS30;64255;49.892;17.884;2023-04-30T10:45:36;nan;nan;nan;nan;nan;nan;nan;nan;nan;nan
75657;SPS30;64255;49.892;17.884;2023-04-30T10:49:23;nan;nan;nan;nan;nan;nan;nan;nan;nan;nan
75657;SPS30;64255;49.892;17.884;2023-04-30T10:53:04;nan;nan;nan;nan;nan;nan;nan;nan;nan;nan
75657;SPS30;64255;49.892;17.884;2023-04-30T10:56:45;nan;nan;nan;nan;nan;nan;nan;nan;nan;nan
75657;SPS30;64255;49.892;17.884;2023-04-30T11:00:29;nan;nan;nan;nan;nan;nan;nan;nan;nan;nan
75657;SPS30;64255;49.892;17.884;2023-04-30T11:04:09;nan;nan;nan;nan;nan;nan;nan;nan;nan;nan
75657;SPS30;64255;49.892;17.884;2023-04-30T11:07:56;nan;nan;nan;nan;nan;nan;nan;nan;nan;nan
75657;SPS30;64255;49.892;17.884;2023-04-30T11:11:37;nan;nan;nan;nan;nan;nan;nan;nan;nan;nan
75657;SPS30;64255;49.892;17.884;2023-04-30T11:15:17;nan;nan;nan;nan;nan;nan;nan;nan;nan;nan
75657;SPS30;64255;49.892;17.884;2023-04-30T11:19:06;nan;nan;nan;nan;nan;nan;nan;nan;nan;nan
75657;SPS30;64255;49.892;17.884;2023-04-30T11:23:09;nan;nan;nan;nan;nan;nan;nan;nan;nan;nan
75657;SPS30;64255;49.892;17.884;2023-04-30T11:27:02;nan;nan;nan;nan;nan;nan;nan;nan;nan;nan
75657;SPS30;64255;49.892;17.884;2023-04-30T11:30:49;nan;nan;nan;nan;nan;nan;nan;nan;nan;nan
75657;SPS30;64255;49.892;17.884;2023-04-30T11:34:36;nan;nan;nan;nan;nan;nan;nan;nan;nan;nan
75657;SPS30;64255;49.892;17.884;2023-04-30T11:38:21;nan;nan;nan;nan;nan;nan;nan;nan;nan;nan
75657;SPS30;64255;49.892;17.884;2023-04-30T11:42:06;nan;nan;nan;nan;nan;nan;nan;nan;nan;nan
75657;SPS30;64255;49.892;17.884;2023-04-30T11:45:57;nan;nan;nan;nan;nan;nan;nan;nan;nan;nan
75657;SPS30;64255;49.892;17.884;2023-04-30T11:49:39;nan;nan;nan;nan;nan;nan;nan;nan;nan;nan